Painted Post, NY (14870)

4:33 PM EST on February 10, 2016 (GMT -0500)
DosLobosLocos--Gang Mills | | Change Station
CLOSE
Current Station
Personal Weather Station
Location: Painted Post, NY
Elevation: 1371 ft
Nearby Weather Stations

Elev 1371 ft 42.15 °N, 77.14 °W | Updated 3 minutes ago

Overcast
Overcast
24.3 °F
Feels Like 24 °F
N
0.0
Wind Variable Wind from East
Gusts 0.0 mph

Today
High -- | Low -- °F
--% Chance of Precip.
Yesterday
High -- | Low -- °F
Precip. -- in
Pressure 29.65 in
Visibility 2.5 miles
Clouds Mostly Cloudy 2800 ft
Mostly Cloudy 3500 ft
Overcast 6000 ft
Windchill 24 °F
Dew Point 19 °F
Humidity 81%
Rainfall 0.00 in
Snow Depth Not available.
7:11 AM 5:34 PM
Waxing Crescent, 7% visible
SPECI KELM 102112Z 25015G21KT 2 1/2SM -SN BKN028 BKN035 OVC060 M02/M07 A2965 RMK AO2 VIS 1V5 SNB07 P0000 T10221067
Pressure 29.65 in
Visibility 2.5 miles
Clouds Mostly Cloudy 2800 ft
Mostly Cloudy 3500 ft
Overcast 6000 ft
Windchill 24 °F
Dew Point 19 °F
Humidity 81%
Rainfall 0.00 in
Snow Depth Not available.
7:11 AM 5:34 PM
Waxing Crescent, 7% visible
SPECI KELM 102112Z 25015G21KT 2 1/2SM -SN BKN028 BKN035 OVC060 M02/M07 A2965 RMK AO2 VIS 1V5 SNB07 P0000 T10221067

10-Day Weather Forecast

Almanac

Astronomy

Feb. 10, 2016 Rise Set
Actual Time
Civil Twilight
Nautical Twilight
Astronomical Twilight
Moon
Length of Visible Light
Length of Day
Tomorrow will be .
, % of the Moon is Illuminated

Today's Extremes

State Highs State Lows

Community

WunderPhotos

Upload Photos

1,891,950 photos uploaded!

WunderBlog® & News

Nearby

Air Quality

  Air Quality AQ Index Pollutant
Not available.

Snow Depth

Station Depth Elevation

Earthquake Activity

City Distance Mag. Time & Date
Minimum magnitude displayed is 2.5.

Coastal Water Temperatures

Place Temperature

Stations

Nearby Weather Stations

Station Location Temp. Windchill Dew Point Humidity Wind Precip. Elev Updated Type
                   

Watches & Warnings

There are currently no watches in effect.